Time;durP1;ratioP1;P1;durP2;ratioP2;P2;SDS_P1;SDS_P2;PMS_P1;PMS_P2;Temp;Humidity;BMP_temperature;BMP_pressure;BME280_temperature;BME280_humidity;BME280_pressure;Samples;Min_cycle;Max_cycle;Signal;HPM_P1;HPM_P2
2022/05/17 00:01:24;;;;;;;3.20;1.13;;;18.20;66.60;;;;;;5071160;28;20094;-90
2022/05/17 00:03:51;;;;;;;3.05;1.10;;;18.20;66.70;;;;;;5071097;28;20046;-89
2022/05/17 00:06:18;;;;;;;4.15;1.15;;;18.20;66.70;;;;;;5071335;28;20106;-89
2022/05/17 00:08:45;;;;;;;4.05;1.20;;;18.20;66.70;;;;;;5071130;28;20048;-90
2022/05/17 00:11:13;;;;;;;4.55;1.20;;;18.20;66.80;;;;;;5071513;28;20049;-90
2022/05/17 00:13:40;;;;;;;2.72;1.00;;;18.20;66.80;;;;;;5071097;28;20501;-91
2022/05/17 00:16:07;;;;;;;6.03;1.50;;;18.20;66.90;;;;;;5070971;28;20044;-91
2022/05/17 00:18:35;;;;;;;3.08;1.10;;;18.20;66.90;;;;;;5071051;28;20052;-90
2022/05/17 00:21:02;;;;;;;3.42;1.20;;;18.20;67.00;;;;;;5072708;28;20049;-90
2022/05/17 00:23:29;;;;;;;3.10;1.20;;;18.20;67.00;;;;;;5074761;28;20041;-91
2022/05/17 00:25:56;;;;;;;4.18;1.40;;;18.20;67.00;;;;;;5074622;28;20506;-92
2022/05/17 00:28:24;;;;;;;3.25;1.17;;;18.20;67.10;;;;;;5074545;28;20105;-90
2022/05/17 00:30:51;;;;;;;2.97;1.25;;;18.20;67.10;;;;;;5074580;28;20056;-89
2022/05/17 00:33:20;;;;;;;3.47;1.05;;;18.20;67.10;;;;;;5074342;28;20044;-90
2022/05/17 00:35:49;;;;;;;4.03;1.20;;;18.20;67.20;;;;;;5074588;28;20472;-90
2022/05/17 00:38:16;;;;;;;4.00;1.20;;;18.20;67.20;;;;;;5075030;28;20483;-90
2022/05/17 00:40:44;;;;;;;4.20;1.38;;;18.20;67.20;;;;;;5073984;28;20045;-91
2022/05/17 00:43:20;;;;;;;3.05;1.13;;;18.20;67.20;;;;;;5074363;28;20040;-90
2022/05/17 00:45:50;;;;;;;7.97;1.50;;;18.20;67.20;;;;;;5074180;28;20498;-90
2022/05/17 00:48:19;;;;;;;5.00;1.15;;;18.20;67.20;;;;;;5074436;28;20418;-91
2022/05/17 00:50:53;;;;;;;3.67;1.10;;;18.20;67.20;;;;;;5074279;28;20052;-91
2022/05/17 00:53:21;;;;;;;3.00;1.20;;;18.20;67.20;;;;;;5074421;28;20053;-90
2022/05/17 00:55:58;;;;;;;2.13;0.98;;;18.20;67.20;;;;;;5074168;28;20541;-90
2022/05/17 00:58:33;;;;;;;4.65;1.08;;;18.20;67.20;;;;;;5074000;28;20048;-90
2022/05/17 01:01:16;;;;;;;3.28;1.17;;;18.20;67.20;;;;;;5074116;28;20040;-90
2022/05/17 01:04:16;;;;;;;2.97;1.15;;;18.30;67.20;;;;;;5073753;28;20076;-91
2022/05/17 01:06:53;;;;;;;4.10;1.40;;;18.30;67.10;;;;;;5064951;28;20418;-91
2022/05/17 01:09:22;;;;;;;4.60;1.38;;;18.30;67.10;;;;;;5073415;28;20453;-91
2022/05/17 01:11:50;;;;;;;3.22;1.20;;;18.30;67.10;;;;;;5073880;28;20430;-91
2022/05/17 01:17:02;;;;;;;4.20;1.13;;;18.30;67.10;;;;;;5073672;28;20388;-90
2022/05/17 01:19:29;;;;;;;4.30;1.40;;;18.30;67.10;;;;;;5073389;28;20426;-91
2022/05/17 01:21:56;;;;;;;3.70;1.10;;;18.30;67.10;;;;;;5073541;28;20070;-90
2022/05/17 01:24:25;;;;;;;2.63;0.93;;;18.30;67.10;;;;;;5073305;28;20048;-91
2022/05/17 01:27:00;;;;;;;7.25;1.35;;;18.30;67.10;;;;;;5073753;28;20709;-91
2022/05/17 01:29:27;;;;;;;5.43;1.27;;;18.30;67.00;;;;;;5070198;28;20139;-90
2022/05/17 01:31:54;;;;;;;4.22;1.23;;;18.30;67.00;;;;;;5072969;28;20052;-89
2022/05/17 01:34:21;;;;;;;7.05;1.75;;;18.30;67.00;;;;;;5073228;28;20165;-90
2022/05/17 01:36:48;;;;;;;2.97;1.10;;;18.30;67.00;;;;;;5073131;28;20044;-91
2022/05/17 01:39:15;;;;;;;4.05;1.30;;;18.40;66.90;;;;;;5073301;28;20472;-90
2022/05/17 01:41:42;;;;;;;4.80;1.50;;;18.30;66.90;;;;;;5073201;28;20102;-91
2022/05/17 01:44:10;;;;;;;2.45;0.98;;;18.40;66.80;;;;;;5073623;28;20490;-91
2022/05/17 01:46:37;;;;;;;4.15;1.42;;;18.30;66.80;;;;;;5073097;28;20044;-89
2022/05/17 01:49:04;;;;;;;4.50;1.20;;;18.40;66.80;;;;;;5073096;28;20048;-91
2022/05/17 01:51:31;;;;;;;3.90;1.25;;;18.30;66.70;;;;;;5072689;28;20044;-90
2022/05/17 01:53:58;;;;;;;2.63;1.02;;;18.40;66.70;;;;;;5072921;28;20052;-90
2022/05/17 01:56:24;;;;;;;4.60;1.50;;;18.40;66.70;;;;;;5073611;28;20449;-90
2022/05/17 01:58:52;;;;;;;6.78;1.52;;;18.40;66.70;;;;;;5072770;28;20048;-91
2022/05/17 02:01:18;;;;;;;6.32;1.63;;;18.30;66.70;;;;;;5071686;28;20056;-89
2022/05/17 02:03:45;;;;;;;3.97;1.38;;;18.40;66.70;;;;;;5071504;28;20139;-90
2022/05/17 02:06:12;;;;;;;6.45;1.33;;;18.40;66.70;;;;;;5072488;28;20105;-90
2022/05/17 02:08:39;;;;;;;4.35;1.27;;;18.40;66.70;;;;;;5072844;28;20109;-91
2022/05/17 02:11:06;;;;;;;4.55;1.30;;;18.40;66.70;;;;;;5071060;28;20579;-91
2022/05/17 02:13:34;;;;;;;4.95;1.48;;;18.30;66.70;;;;;;5072586;28;20122;-91
2022/05/17 02:16:06;;;;;;;5.32;1.40;;;18.30;66.70;;;;;;5072466;28;20044;-90
2022/05/17 02:18:35;;;;;;;3.90;1.40;;;18.30;66.80;;;;;;5072533;28;20056;-90
2022/05/17 02:21:02;;;;;;;4.45;1.63;;;18.30;66.80;;;;;;5072123;28;20325;-89
2022/05/17 02:23:29;;;;;;;4.00;1.02;;;18.30;66.90;;;;;;5072631;28;20473;-90
2022/05/17 02:25:56;;;;;;;5.38;1.38;;;18.30;66.90;;;;;;5072777;28;20078;-91
2022/05/17 02:28:24;;;;;;;5.60;1.33;;;18.30;67.00;;;;;;5072235;28;20563;-90
2022/05/17 02:30:51;;;;;;;6.80;1.40;;;18.30;67.00;;;;;;5072293;28;20465;-89
2022/05/17 02:33:17;;;;;;;4.22;1.40;;;18.20;67.00;;;;;;5072190;28;20044;-90
2022/05/17 02:35:45;;;;;;;3.67;1.35;;;18.20;67.10;;;;;;5071908;28;20082;-91
2022/05/17 02:38:12;;;;;;;5.10;1.50;;;18.30;67.20;;;;;;5072714;28;20045;-90
2022/05/17 02:40:39;;;;;;;3.38;1.10;;;18.20;67.20;;;;;;5072054;28;20157;-91
2022/05/17 02:43:10;;;;;;;4.80;1.33;;;18.30;67.30;;;;;;5071190;28;20465;-90
2022/05/17 02:45:37;;;;;;;4.97;1.30;;;18.20;67.30;;;;;;5072070;28;20094;-90
2022/05/17 02:48:05;;;;;;;4.97;1.50;;;18.20;67.30;;;;;;5072107;28;20067;-91
2022/05/17 02:50:32;;;;;;;5.07;1.33;;;18.20;67.40;;;;;;5072062;28;20056;-90
2022/05/17 02:52:59;;;;;;;4.78;1.50;;;18.20;67.40;;;;;;5071344;28;20102;-91
2022/05/17 02:55:25;;;;;;;3.65;1.25;;;18.20;67.50;;;;;;5071740;28;20056;-91
2022/05/17 02:57:53;;;;;;;5.25;1.52;;;18.20;67.50;;;;;;5071789;28;20094;-91
2022/05/17 03:00:20;;;;;;;6.93;1.60;;;18.20;67.60;;;;;;5071888;28;20052;-90
2022/05/17 03:02:47;;;;;;;4.60;1.50;;;18.20;67.60;;;;;;5071880;28;20053;-92
2022/05/17 03:05:14;;;;;;;3.42;1.58;;;18.20;67.70;;;;;;5072072;28;20048;-90
2022/05/17 03:07:41;;;;;;;4.05;1.55;;;18.20;67.70;;;;;;5071714;28;20076;-90
2022/05/17 03:10:10;;;;;;;4.68;1.63;;;18.20;67.80;;;;;;5071546;28;20472;-90
2022/05/17 03:12:38;;;;;;;5.88;2.10;;;18.20;67.80;;;;;;5071679;28;20045;-91
2022/05/17 03:15:05;;;;;;;4.53;2.15;;;18.20;67.90;;;;;;5071699;28;20563;-90
2022/05/17 03:17:32;;;;;;;7.30;1.70;;;18.20;68.00;;;;;;5072023;28;20052;-89
2022/05/17 03:19:59;;;;;;;6.75;2.50;;;18.20;68.00;;;;;;5070703;28;20061;-91
2022/05/17 03:22:26;;;;;;;5.78;2.08;;;18.20;68.10;;;;;;5071530;28;20053;-91
2022/05/17 03:24:53;;;;;;;6.10;2.50;;;18.20;68.10;;;;;;5071515;28;20049;-91
2022/05/17 03:27:40;;;;;;;5.57;2.15;;;18.20;68.10;;;;;;5071745;28;20535;-90
2022/05/17 03:30:07;;;;;;;9.45;2.95;;;18.20;68.20;;;;;;5071541;28;20468;-91
2022/05/17 03:32:34;;;;;;;6.90;2.10;;;18.20;68.30;;;;;;5071645;28;20507;-90
2022/05/17 03:35:02;;;;;;;6.38;2.60;;;18.20;68.30;;;;;;5071477;28;20498;-90
2022/05/17 03:37:28;;;;;;;8.00;2.55;;;18.10;68.40;;;;;;5071382;28;20044;-90
2022/05/17 03:39:56;;;;;;;7.63;2.45;;;18.10;68.40;;;;;;5071370;28;20052;-91
2022/05/17 03:42:23;;;;;;;6.28;2.45;;;18.10;68.40;;;;;;5070273;28;20400;-90
2022/05/17 03:44:49;;;;;;;6.43;2.65;;;18.10;68.50;;;;;;5071397;28;20063;-91
2022/05/17 03:47:16;;;;;;;5.65;2.20;;;18.10;68.50;;;;;;5071545;28;20075;-90
2022/05/17 03:49:43;;;;;;;8.43;2.55;;;18.10;68.60;;;;;;5071290;28;20048;-91
2022/05/17 03:52:10;;;;;;;9.50;2.97;;;18.10;68.60;;;;;;5069988;28;20094;-89
2022/05/17 03:54:38;;;;;;;9.57;2.70;;;18.10;68.70;;;;;;5072206;28;20053;-89
2022/05/17 03:57:05;;;;;;;5.82;2.53;;;18.10;68.70;;;;;;5074163;28;20090;-90
2022/05/17 03:59:33;;;;;;;8.57;2.90;;;18.10;68.70;;;;;;5075509;28;20058;-90
2022/05/17 04:02:00;;;;;;;8.00;2.97;;;18.00;68.80;;;;;;5074411;28;20048;-90
2022/05/17 04:04:27;;;;;;;7.65;3.22;;;18.00;68.90;;;;;;5075098;28;20079;-90
2022/05/17 04:06:53;;;;;;;6.57;2.80;;;18.00;68.90;;;;;;5075047;28;20048;-90
2022/05/17 04:09:20;;;;;;;6.40;3.00;;;18.00;69.00;;;;;;5075145;28;20040;-90
2022/05/17 04:11:47;;;;;;;7.20;3.22;;;18.00;69.00;;;;;;5073872;28;20056;-89
2022/05/17 04:14:14;;;;;;;11.02;3.35;;;18.00;69.10;;;;;;5075499;28;20125;-90
2022/05/17 04:16:41;;;;;;;7.15;3.35;;;17.90;69.10;;;;;;5074395;28;20044;-91
2022/05/17 04:19:09;;;;;;;7.95;3.55;;;18.00;69.20;;;;;;5074467;28;20071;-90
2022/05/17 04:21:36;;;;;;;9.68;3.47;;;18.00;69.30;;;;;;5074760;28;20044;-91
2022/05/17 04:24:03;;;;;;;8.50;3.53;;;17.90;69.40;;;;;;5074720;28;20461;-90
2022/05/17 04:26:30;;;;;;;7.00;3.10;;;17.90;69.50;;;;;;5075049;28;20098;-91
2022/05/17 04:28:57;;;;;;;9.98;3.63;;;17.90;69.50;;;;;;5075020;28;20476;-90
2022/05/17 04:31:24;;;;;;;11.15;3.40;;;17.90;69.60;;;;;;5073044;28;20052;-89
2022/05/17 04:33:51;;;;;;;7.72;3.35;;;17.90;69.70;;;;;;5074433;28;20594;-91
2022/05/17 04:36:18;;;;;;;9.55;3.70;;;17.90;69.80;;;;;;5074471;28;20052;-91
2022/05/17 04:38:45;;;;;;;7.05;3.33;;;17.90;69.80;;;;;;5074724;28;20063;-90
2022/05/17 04:41:12;;;;;;;10.13;3.72;;;17.90;69.90;;;;;;5075047;28;20048;-90
2022/05/17 04:43:39;;;;;;;7.80;3.80;;;17.90;70.00;;;;;;5074257;28;20048;-90
2022/05/17 04:46:09;;;;;;;7.80;3.42;;;17.90;70.10;;;;;;5073840;28;20579;-90
2022/05/17 04:48:36;;;;;;;7.15;3.22;;;17.80;70.10;;;;;;5074138;28;20044;-89
2022/05/17 04:51:08;;;;;;;8.80;3.38;;;17.80;70.20;;;;;;5074548;28;20044;-90
2022/05/17 04:53:37;;;;;;;8.60;3.72;;;17.80;70.30;;;;;;5074227;28;20044;-90
2022/05/17 04:56:06;;;;;;;9.40;4.07;;;17.80;70.40;;;;;;5074513;28;20102;-90
2022/05/17 04:58:34;;;;;;;8.02;3.60;;;17.80;70.50;;;;;;5073911;28;20049;-90
2022/05/17 05:01:01;;;;;;;8.88;3.45;;;17.80;70.60;;;;;;5073688;28;20056;-90
2022/05/17 05:03:29;;;;;;;9.77;3.80;;;17.80;70.60;;;;;;5073916;28;20052;-90
2022/05/17 05:05:56;;;;;;;7.32;3.70;;;17.80;70.70;;;;;;5056330;28;20044;-90
2022/05/17 05:08:23;;;;;;;7.97;3.55;;;17.80;70.80;;;;;;5070399;28;20196;-91
2022/05/17 05:10:54;;;;;;;6.03;3.45;;;17.80;70.80;;;;;;5075468;28;20113;-89
2022/05/17 05:13:23;;;;;;;6.43;3.65;;;17.80;70.90;;;;;;5073752;28;20102;-89
2022/05/17 05:15:50;;;;;;;10.20;3.38;;;17.80;71.00;;;;;;5073332;28;20518;-89
2022/05/17 05:18:17;;;;;;;9.07;3.72;;;17.80;71.10;;;;;;5073869;28;20145;-90
2022/05/17 05:20:44;;;;;;;11.35;3.90;;;17.80;71.10;;;;;;5073842;28;20048;-90
2022/05/17 05:23:11;;;;;;;9.07;4.68;;;17.80;71.20;;;;;;5073037;28;20490;-90
2022/05/17 05:25:39;;;;;;;7.85;3.97;;;17.80;71.30;;;;;;5073644;28;20049;-90
2022/05/17 05:28:09;;;;;;;8.52;4.15;;;17.80;71.40;;;;;;5073565;28;20036;-90
2022/05/17 05:30:36;;;;;;;9.35;4.40;;;17.70;71.50;;;;;;5073077;28;20473;-90
2022/05/17 05:33:03;;;;;;;11.63;4.30;;;17.80;71.60;;;;;;5073553;28;20102;-91
2022/05/17 05:35:32;;;;;;;10.15;4.28;;;17.70;71.70;;;;;;5073374;28;20049;-90
2022/05/17 05:37:59;;;;;;;7.88;4.20;;;17.70;71.70;;;;;;5072722;28;20045;-89
2022/05/17 05:40:26;;;;;;;9.48;4.50;;;17.80;71.80;;;;;;5073355;28;20052;-88
2022/05/17 05:42:53;;;;;;;7.25;4.18;;;17.80;71.90;;;;;;5073211;28;20591;-90
2022/05/17 05:45:21;;;;;;;7.35;4.30;;;17.80;72.00;;;;;;5072942;28;20040;-91
2022/05/17 05:47:49;;;;;;;8.02;3.97;;;17.80;72.00;;;;;;5072055;28;20466;-90
2022/05/17 05:50:16;;;;;;;10.23;4.60;;;17.80;72.10;;;;;;5073887;28;20049;-90
2022/05/17 05:52:42;;;;;;;11.07;4.20;;;17.80;72.20;;;;;;5072887;28;20408;-90
2022/05/17 05:55:14;;;;;;;7.97;3.92;;;17.80;72.20;;;;;;5073066;28;20044;-89
2022/05/17 05:57:46;;;;;;;9.50;3.97;;;17.80;72.30;;;;;;5072473;28;20060;-90
2022/05/17 06:00:14;;;;;;;10.70;4.60;;;17.90;72.30;;;;;;5072907;28;20045;-91
2022/05/17 06:02:41;;;;;;;7.45;3.58;;;17.90;72.40;;;;;;5073127;28;20052;-91
2022/05/17 06:05:08;;;;;;;9.00;3.92;;;17.90;72.40;;;;;;5071436;28;20106;-90
2022/05/17 06:07:36;;;;;;;11.45;4.35;;;17.90;72.40;;;;;;5072753;28;20053;-90
2022/05/17 06:10:05;;;;;;;9.18;4.57;;;17.90;72.40;;;;;;5072658;28;20052;-90
2022/05/17 06:12:31;;;;;;;8.95;3.90;;;18.00;72.40;;;;;;5072212;28;20052;-89
2022/05/17 06:14:58;;;;;;;6.88;3.88;;;18.00;72.40;;;;;;5072688;28;20102;-90
2022/05/17 06:17:27;;;;;;;7.43;4.18;;;18.00;72.40;;;;;;5071967;28;20060;-90
2022/05/17 06:19:55;;;;;;;9.85;4.40;;;18.10;72.40;;;;;;5070485;28;20045;-91
2022/05/17 06:22:23;;;;;;;8.38;4.40;;;18.10;72.50;;;;;;5073300;28;20048;-91
2022/05/17 06:24:51;;;;;;;8.30;4.20;;;18.20;72.50;;;;;;5072985;28;20110;-89
2022/05/17 06:27:23;;;;;;;8.27;4.03;;;18.20;72.50;;;;;;5067312;28;20049;-89
2022/05/17 06:29:49;;;;;;;6.80;3.50;;;18.30;72.50;;;;;;5075576;28;20064;-90
2022/05/17 06:32:17;;;;;;;8.05;3.47;;;18.30;72.50;;;;;;5075769;28;20518;-89
2022/05/17 06:34:45;;;;;;;9.50;4.68;;;18.40;72.50;;;;;;5072487;28;20044;-90
2022/05/17 06:37:17;;;;;;;11.40;4.60;;;18.40;72.50;;;;;;5072233;28;20040;-90
2022/05/17 06:39:43;;;;;;;9.15;4.10;;;18.40;72.50;;;;;;5071336;28;20049;-89
2022/05/17 06:42:10;;;;;;;9.38;4.55;;;18.40;72.50;;;;;;5072879;28;20569;-89
2022/05/17 06:44:38;;;;;;;7.45;4.10;;;18.50;72.40;;;;;;5073891;28;20056;-91
2022/05/17 06:47:06;;;;;;;10.40;4.40;;;18.50;72.40;;;;;;5074059;28;20044;-91
2022/05/17 06:49:37;;;;;;;8.85;4.22;;;18.60;72.40;;;;;;5072071;28;20052;-90
2022/05/17 06:52:04;;;;;;;7.50;4.15;;;18.60;72.40;;;;;;5071793;28;20533;-90
2022/05/17 06:54:31;;;;;;;7.90;3.90;;;18.70;72.40;;;;;;5073874;28;20048;-91
2022/05/17 06:57:03;;;;;;;8.95;3.85;;;18.80;72.40;;;;;;5067788;28;20045;-89
2022/05/17 06:59:31;;;;;;;8.32;4.05;;;18.80;72.40;;;;;;5074077;28;20041;-91
2022/05/17 07:01:59;;;;;;;8.95;4.00;;;18.80;72.40;;;;;;5074511;28;20506;-91
2022/05/17 07:04:27;;;;;;;7.97;3.70;;;18.90;72.40;;;;;;5071812;28;20089;-92
2022/05/17 07:06:56;;;;;;;11.93;4.15;;;18.90;72.30;;;;;;5066362;28;20047;-90
2022/05/17 07:09:23;;;;;;;7.45;3.38;;;19.00;72.20;;;;;;5083449;28;20506;-90
2022/05/17 07:14:37;;;;;;;6.07;3.45;;;19.00;72.20;;;;;;5069567;28;20052;-90
2022/05/17 07:17:19;;;;;;;8.88;3.70;;;19.10;72.10;;;;;;5073363;28;20510;-90
2022/05/17 07:19:47;;;;;;;6.57;3.42;;;19.20;72.10;;;;;;5072847;28;20052;-91
2022/05/17 07:22:14;;;;;;;7.70;3.33;;;19.20;72.00;;;;;;5072602;28;20101;-89
2022/05/17 07:24:41;;;;;;;9.82;3.53;;;19.30;72.00;;;;;;5071319;28;20093;-90
2022/05/17 07:27:09;;;;;;;9.00;3.28;;;19.30;71.90;;;;;;5068536;28;20461;-91
2022/05/17 07:29:47;;;;;;;9.85;3.15;;;19.40;71.90;;;;;;5068233;28;20541;-90
2022/05/17 07:32:14;;;;;;;9.02;3.25;;;19.50;71.80;;;;;;5073318;28;20529;-91
2022/05/17 07:34:41;;;;;;;9.48;3.30;;;19.50;71.70;;;;;;5072067;28;20499;-91
2022/05/17 07:37:09;;;;;;;5.53;3.08;;;19.60;71.60;;;;;;5072951;28;20445;-90
2022/05/17 07:39:36;;;;;;;7.15;3.10;;;19.60;71.50;;;;;;5072962;28;20040;-91
2022/05/17 07:42:05;;;;;;;8.20;3.20;;;19.70;71.30;;;;;;5067691;28;20045;-91
2022/05/17 07:44:32;;;;;;;9.45;3.28;;;19.80;71.20;;;;;;5072945;28;20506;-90
2022/05/17 07:46:59;;;;;;;5.80;2.97;;;19.90;71.20;;;;;;5072371;28;20048;-91
2022/05/17 07:49:27;;;;;;;7.95;3.38;;;19.90;71.10;;;;;;5071166;28;20457;-91
2022/05/17 07:51:54;;;;;;;6.35;2.80;;;19.90;70.90;;;;;;5072906;28;20542;-92
2022/05/17 07:54:21;;;;;;;7.22;3.17;;;20.00;70.80;;;;;;5070949;28;20505;-93
2022/05/17 07:56:49;;;;;;;7.88;2.88;;;20.00;70.80;;;;;;5069202;28;20515;-92
2022/05/17 07:59:16;;;;;;;5.53;2.72;;;20.10;70.70;;;;;;5074333;28;20098;-91
2022/05/17 08:01:42;;;;;;;6.97;2.70;;;20.10;70.60;;;;;;5081162;28;20048;-92
2022/05/17 08:04:09;;;;;;;7.70;2.50;;;20.10;70.50;;;;;;5077169;28;20047;-92
2022/05/17 08:06:36;;;;;;;12.07;3.08;;;20.30;70.30;;;;;;5068130;28;20049;-92
2022/05/17 08:09:03;;;;;;;6.03;2.65;;;20.30;70.20;;;;;;5067764;28;20045;-92
2022/05/17 08:11:31;;;;;;;7.07;2.58;;;20.40;70.10;;;;;;5073013;28;20114;-92
2022/05/17 08:13:58;;;;;;;7.30;3.17;;;20.40;70.00;;;;;;5072612;28;20049;-92
2022/05/17 08:16:42;;;;;;;6.82;2.83;;;20.40;69.90;;;;;;5071062;28;20059;-92
2022/05/17 08:19:10;;;;;;;6.75;2.70;;;20.50;69.80;;;;;;5076900;28;20143;-92
2022/05/17 08:21:37;;;;;;;5.47;2.35;;;20.60;69.60;;;;;;5081389;28;20579;-92
2022/05/17 08:24:05;;;;;;;5.15;2.33;;;20.70;69.50;;;;;;5068785;28;20102;-92
2022/05/17 08:29:17;;;;;;;5.70;2.35;;;20.80;69.30;;;;;;5075081;28;20442;-92
2022/05/17 08:33:14;;;;;;;6.70;2.40;;;20.90;69.20;;;;;;5073052;28;20090;-92
2022/05/17 08:34:31;;;;;;;6.30;2.50;;;20.90;69.00;;;;;;5074243;28;20048;-91
2022/05/17 08:36:58;;;;;;;6.50;2.50;;;20.90;68.90;;;;;;5070758;28;20515;-92
2022/05/17 08:39:26;;;;;;;5.20;2.10;;;21.00;68.70;;;;;;5070284;28;20140;-93
2022/05/17 08:42:17;;;;;;;8.85;2.15;;;21.10;68.60;;;;;;5069042;28;20040;-92
2022/05/17 08:44:51;;;;;;;4.22;1.90;;;21.20;68.40;;;;;;5086574;28;20047;-92
2022/05/17 08:47:39;;;;;;;5.88;2.30;;;21.30;68.30;;;;;;5078874;28;20060;-92
2022/05/17 08:50:29;;;;;;;8.13;2.35;;;21.40;68.20;;;;;;5085679;28;20505;-93
2022/05/17 08:52:56;;;;;;;7.15;2.42;;;21.50;68.00;;;;;;5084555;28;20574;-93
2022/05/17 08:55:33;;;;;;;6.15;2.15;;;21.60;67.80;;;;;;5078908;28;20044;-92
2022/05/17 08:58:18;;;;;;;7.40;2.28;;;21.70;67.70;;;;;;5068686;28;20055;-92
2022/05/17 09:00:51;;;;;;;5.70;2.00;;;21.80;67.40;;;;;;5075856;28;20094;-92
2022/05/17 09:03:42;;;;;;;7.70;2.33;;;21.90;67.20;;;;;;5074074;28;20484;-92
2022/05/17 09:06:27;;;;;;;6.00;2.05;;;22.00;67.00;;;;;;5058525;28;20045;-91
2022/05/17 09:09:22;;;;;;;6.93;2.17;;;22.10;66.70;;;;;;5088094;28;20044;-92
2022/05/17 09:11:59;;;;;;;7.78;2.10;;;22.20;66.40;;;;;;5102319;28;20060;-91
2022/05/17 09:14:30;;;;;;;6.15;2.15;;;22.30;66.10;;;;;;5086333;28;20468;-93
2022/05/17 09:17:10;;;;;;;5.53;1.90;;;22.40;65.90;;;;;;5078921;28;20509;-92
2022/05/17 09:19:38;;;;;;;5.95;2.00;;;22.50;65.70;;;;;;5076590;28;20101;-93
2022/05/17 09:22:06;;;;;;;5.78;2.33;;;22.60;65.30;;;;;;5080077;28;20044;-92
2022/05/17 09:24:45;;;;;;;7.88;1.95;;;22.70;65.10;;;;;;5076434;28;20044;-93
2022/05/17 09:27:29;;;;;;;6.22;2.15;;;22.80;64.80;;;;;;5071537;28;20049;-95
2022/05/17 09:30:05;;;;;;;5.00;2.00;;;22.90;64.40;;;;;;5053950;28;20040;-93
2022/05/17 09:32:38;;;;;;;6.88;2.08;;;23.00;64.10;;;;;;5085516;28;20048;-94
2022/05/17 09:35:17;;;;;;;4.40;1.65;;;23.10;63.70;;;;;;5076352;28;20498;-93
2022/05/17 09:37:50;;;;;;;6.10;1.98;;;23.20;63.30;;;;;;5082294;28;20052;-94
2022/05/17 09:40:29;;;;;;;4.43;1.98;;;23.30;63.00;;;;;;5085057;28;20498;-92
2022/05/17 09:43:06;;;;;;;4.28;1.60;;;23.40;62.70;;;;;;5082582;28;20109;-92
2022/05/17 09:45:49;;;;;;;7.30;2.03;;;23.40;62.40;;;;;;5073225;28;20135;-91
2022/05/17 09:52:32;;;;;;;5.43;1.98;;;23.50;62.10;;;;;;5071629;28;20045;-92
2022/05/17 09:54:37;;;;;;;4.88;1.98;;;23.60;61.70;;;;;;5057698;28;20049;-92
2022/05/17 09:57:24;;;;;;;4.70;1.63;;;23.60;61.40;;;;;;5054751;28;20466;-92
2022/05/17 10:00:01;;;;;;;4.85;1.55;;;23.60;61.10;;;;;;5069265;28;20474;-93
2022/05/17 10:02:34;;;;;;;5.55;1.75;;;23.60;60.90;;;;;;5085158;28;20506;-93
2022/05/17 10:05:09;;;;;;;3.33;1.55;;;23.70;60.70;;;;;;5075817;28;20076;-92
2022/05/17 10:07:37;;;;;;;5.60;1.60;;;23.70;60.50;;;;;;5073210;28;20588;-92
2022/05/17 10:10:19;;;;;;;8.00;1.70;;;23.70;60.40;;;;;;5074692;28;20052;-91
2022/05/17 10:12:51;;;;;;;4.97;1.60;;;23.70;60.40;;;;;;5072565;28;20173;-92
2022/05/17 10:15:19;;;;;;;4.25;1.50;;;23.70;60.30;;;;;;5072720;28;20098;-92
2022/05/17 10:17:56;;;;;;;4.97;1.60;;;23.70;60.20;;;;;;5070711;28;20416;-90
2022/05/17 10:20:29;;;;;;;7.70;1.75;;;23.70;60.10;;;;;;5076370;28;20510;-91
2022/05/17 10:23:32;;;;;;;5.40;1.58;;;23.80;60.00;;;;;;5072793;28;20037;-92
2022/05/17 10:26:11;;;;;;;4.97;1.83;;;23.80;59.90;;;;;;5073880;28;20057;-91
2022/05/17 10:28:45;;;;;;;3.20;1.40;;;23.80;59.70;;;;;;5074097;28;20098;-92
2022/05/17 10:31:29;;;;;;;6.05;1.70;;;23.90;59.60;;;;;;5072643;28;20048;-92
2022/05/17 10:34:33;;;;;;;5.63;1.45;;;23.90;59.30;;;;;;5072721;28;20083;-91
2022/05/17 10:37:07;;;;;;;7.60;1.67;;;24.10;59.10;;;;;;5072410;28;20060;-92
2022/05/17 10:39:56;;;;;;;5.22;1.55;;;24.20;58.80;;;;;;5073770;28;20044;-92
2022/05/17 10:42:24;;;;;;;3.65;1.33;;;24.20;58.40;;;;;;5071242;28;20048;-93
2022/05/17 10:44:53;;;;;;;5.15;1.63;;;24.30;58.20;;;;;;5069890;28;20565;-91
2022/05/17 10:47:47;;;;;;;4.00;1.35;;;24.40;57.90;;;;;;5076405;28;20063;-91
2022/05/17 10:50:46;;;;;;;4.32;1.55;;;24.50;57.60;;;;;;5070160;28;20053;-92
2022/05/17 10:53:30;;;;;;;4.28;1.27;;;24.60;57.20;;;;;;5074807;28;20048;-90
2022/05/17 10:56:25;;;;;;;5.07;1.73;;;24.80;56.80;;;;;;5073123;28;20086;-91
2022/05/17 10:59:18;;;;;;;4.60;1.30;;;24.90;56.50;;;;;;5071960;28;20564;-91
2022/05/17 11:02:20;;;;;;;3.78;1.20;;;25.00;55.90;;;;;;5073676;28;20044;-92
2022/05/17 11:05:12;;;;;;;4.80;1.20;;;25.10;55.60;;;;;;5031533;28;20052;-91
2022/05/17 11:07:53;;;;;;;4.00;1.40;;;25.30;55.30;;;;;;5023255;28;20617;-91
2022/05/17 11:10:30;;;;;;;3.97;1.25;;;25.30;54.80;;;;;;5032297;28;20057;-92
2022/05/17 11:13:16;;;;;;;5.00;1.35;;;25.40;54.50;;;;;;5033003;28;20513;-93
2022/05/17 11:15:57;;;;;;;6.32;1.60;;;25.50;54.00;;;;;;5030261;28;20045;-93
2022/05/17 11:18:35;;;;;;;4.68;1.35;;;25.60;53.60;;;;;;5043239;28;20098;-92
2022/05/17 11:21:18;;;;;;;4.60;1.33;;;25.80;53.30;;;;;;5028586;28;20164;-94
2022/05/17 11:23:54;;;;;;;5.18;1.45;;;25.80;53.10;;;;;;5044354;28;20100;-93
2022/05/17 11:26:35;;;;;;;5.20;1.50;;;25.90;52.70;;;;;;5033439;28;20510;-94
2022/05/17 11:29:21;;;;;;;4.15;1.30;;;25.90;52.50;;;;;;5021421;28;20086;-93
2022/05/17 11:32:14;;;;;;;6.30;1.58;;;26.10;52.20;;;;;;5028613;28;20108;-92
2022/05/17 11:34:45;;;;;;;4.47;1.38;;;26.20;52.00;;;;;;5031019;28;20579;-91
2022/05/17 11:37:37;;;;;;;4.38;1.27;;;26.30;51.80;;;;;;5032262;28;20052;-92
2022/05/17 11:40:10;;;;;;;4.70;1.20;;;26.30;51.50;;;;;;5025492;28;20049;-92
2022/05/17 11:45:51;;;;;;;5.80;1.55;;;26.40;51.00;;;;;;5071435;28;20055;-92
2022/05/17 11:48:23;;;;;;;5.03;1.25;;;26.60;50.70;;;;;;5069665;28;20503;-91
2022/05/17 11:50:52;;;;;;;5.18;1.60;;;26.70;50.40;;;;;;5085221;28;20041;-92
2022/05/17 11:53:25;;;;;;;5.72;1.55;;;26.80;50.20;;;;;;5074809;28;20056;-92
2022/05/17 11:56:33;;;;;;;4.85;1.10;;;26.80;50.00;;;;;;5073527;28;20050;-93
2022/05/17 11:59:20;;;;;;;4.18;1.25;;;26.90;49.80;;;;;;5072234;28;20040;-92
2022/05/17 12:02:02;;;;;;;4.47;1.20;;;27.00;49.60;;;;;;5071387;28;20048;-92
2022/05/17 12:04:36;;;;;;;4.40;1.30;;;27.10;49.40;;;;;;5071517;28;20048;-92
2022/05/17 12:07:25;;;;;;;5.82;1.27;;;27.10;49.20;;;;;;5071424;28;20529;-93
2022/05/17 12:09:57;;;;;;;4.07;1.60;;;27.30;49.00;;;;;;5072632;28;20044;-92
2022/05/17 12:12:44;;;;;;;4.03;1.60;;;27.30;48.80;;;;;;5070163;28;20448;-93
2022/05/17 12:15:18;;;;;;;2.63;1.08;;;27.40;48.50;;;;;;5056254;28;20700;-91
2022/05/17 12:17:44;;;;;;;;;;;27.40;48.30;;;;;;5072950;28;20094;-92
2022/05/17 12:20:21;;;;;;;3.53;0.98;;;27.50;48.20;;;;;;5077247;28;19920;-91
2022/05/17 12:22:55;;;;;;;3.92;1.27;;;27.60;48.00;;;;;;5074917;28;20049;-92
2022/05/17 12:25:48;;;;;;;4.57;1.40;;;27.60;47.80;;;;;;5076019;28;20056;-92
2022/05/17 12:28:54;;;;;;;5.32;1.23;;;27.70;47.60;;;;;;5075419;28;20125;-93
2022/05/17 12:31:25;;;;;;;2.63;0.90;;;27.80;47.50;;;;;;5074339;28;20048;-92
2022/05/17 12:33:55;;;;;;;3.30;1.20;;;27.80;47.30;;;;;;5076684;28;20045;-91
2022/05/17 12:36:26;;;;;;;3.33;1.13;;;27.90;47.20;;;;;;5074360;28;20056;-92
2022/05/17 12:44:55;;;;;;;4.20;1.15;;;28.10;46.80;;;;;;5086362;28;20044;-91
2022/05/17 12:47:28;;;;;;;3.42;1.10;;;28.10;46.60;;;;;;5078094;28;20045;-91
2022/05/17 12:49:59;;;;;;;4.50;1.50;;;28.20;46.40;;;;;;5076863;28;20538;-91
2022/05/17 12:52:32;;;;;;;5.30;1.45;;;28.30;46.40;;;;;;5075959;28;20098;-92
2022/05/17 12:55:05;;;;;;;3.50;1.25;;;28.30;46.30;;;;;;5074263;28;20048;-92
2022/05/17 12:57:34;;;;;;;5.83;1.37;;;28.40;46.20;;;;;;5074415;28;20098;-92
2022/05/17 13:00:10;;;;;;;2.42;1.10;;;28.40;46.10;;;;;;5070774;28;20098;-91
2022/05/17 13:02:48;;;;;;;4.15;1.23;;;28.40;46.00;;;;;;5074711;28;20060;-91
2022/05/17 13:05:25;;;;;;;6.20;1.48;;;28.40;45.90;;;;;;5077228;28;20044;-92
2022/05/17 13:08:18;;;;;;;3.72;1.20;;;28.50;45.80;;;;;;5074322;28;20048;-91
2022/05/17 13:11:18;;;;;;;5.45;1.33;;;28.50;45.60;;;;;;5073846;28;20055;-92
2022/05/17 13:13:46;;;;;;;7.20;1.33;;;28.60;45.60;;;;;;5073703;28;20122;-91
2022/05/17 13:16:22;;;;;;;7.13;1.20;;;28.60;45.50;;;;;;5073555;28;20049;-92
2022/05/17 13:18:53;;;;;;;3.08;1.10;;;28.60;45.40;;;;;;5073758;28;20052;-91
2022/05/17 13:21:23;;;;;;;2.30;0.93;;;28.70;45.30;;;;;;5072181;28;20097;-90
2022/05/17 13:23:55;;;;;;;5.82;1.17;;;28.70;45.20;;;;;;5070248;28;20044;-92
2022/05/17 13:26:32;;;;;;;4.50;1.23;;;28.80;45.20;;;;;;5077886;28;20580;-91
2022/05/17 13:29:31;;;;;;;2.28;1.00;;;28.80;45.10;;;;;;5074457;28;20105;-91
2022/05/17 13:32:17;;;;;;;5.35;1.15;;;28.80;45.00;;;;;;5074829;28;20053;-92